Карточка аэропорта UOOO

Внимание!
Информация на этой странице в стадии наполнения.
Если вы не увидели какой-то информации, или заметили неточность - пожалуйста сообщите нам!
Спасибо!
Команда RU-STAFF
Название аэропортаАлыкель
Название аэропорта (англ.)Alykel
Превышение574 ft. (175 m.)
Координаты69°19.02', 87°19.02'
Высота перехода1200m
Эшелон переходаQFE>744:FL60;744>QFE>717:FL70;717>QFE:FL80
Коды ответчика5401-5427
Зона ОрВДКрасноярск РПИ (UNKL)
Данные METARUOOO 052130Z 21003MPS CAVOK 12/06 Q1006 R01/CLRD60 NOSIG RMK QFE739/0986
Проноз погоды (TAF)UOOO 051959Z 0521/0621 30003MPS 9999 SCT020 FM060000 22005G10MPS 6000 -SHRA BKN017CB TEMPO 0606/0612 27005G10MPS BKN009CB BECMG 0612/0614 33003G08MPS
NOTAMshow/hide NOTAM
AWOS   TABLE

Информация о ВПП

ВПП Длина ВПП (м.) Покрытие Курс ВПП Частота ILS
013430Бетон13109.5
193430Бетон193110.3

Диспетчерские позиции

Позывной Наименование органа УВД Частота
UOOO_GNDНорильск - Руление121.700
UOOO_APPНорильск - Круг120.400
UOOO_TWRНорильск - Старт118.300



Спутниковое изображение